createdAt,value
2023-05-06T00:00:08.112Z,110.81
2023-05-06T00:01:08.097Z,110.81
2023-05-06T00:02:08.088Z,109.20
2023-05-06T00:03:08.138Z,109.52
2023-05-06T00:04:09.058Z,109.52
2023-05-06T00:05:09.288Z,110.81
2023-05-06T00:06:08.001Z,111.13
2023-05-06T00:07:08.058Z,109.84
2023-05-06T00:08:08.018Z,110.17
2023-05-06T00:09:08.013Z,110.81
2023-05-06T00:10:07.992Z,109.20
2023-05-06T00:11:07.999Z,109.52
2023-05-06T00:12:07.989Z,109.84
2023-05-06T00:13:08.006Z,109.52
2023-05-06T00:14:07.912Z,110.49
2023-05-06T00:15:08.532Z,109.52
2023-05-06T00:16:07.939Z,110.81
2023-05-06T00:17:07.903Z,110.49
2023-05-06T00:18:07.924Z,109.52
2023-05-06T00:19:07.865Z,109.20
2023-05-06T00:20:08.624Z,109.52
2023-05-06T00:21:08.601Z,110.81
2023-05-06T00:22:08.125Z,110.81
2023-05-06T00:23:07.900Z,109.52
2023-05-06T00:24:07.802Z,111.13
2023-05-06T00:25:07.974Z,110.81
2023-05-06T00:26:08.688Z,109.20
2023-05-06T00:27:08.532Z,109.52
2023-05-06T00:28:07.729Z,110.17
2023-05-06T00:29:07.733Z,106.62
2023-05-06T00:30:07.717Z,110.49
2023-05-06T00:31:07.714Z,109.84
2023-05-06T00:32:07.795Z,108.88
2023-05-06T00:33:07.805Z,110.49
2023-05-06T00:34:07.639Z,108.88
2023-05-06T00:35:08.068Z,110.17
2023-05-06T00:36:08.503Z,109.20
2023-05-06T00:37:08.019Z,110.17
2023-05-06T00:38:07.609Z,110.17
2023-05-06T00:39:07.640Z,109.52
2023-05-06T00:40:07.656Z,109.84
2023-05-06T00:41:07.578Z,110.17
2023-05-06T00:42:08.505Z,109.20
2023-05-06T00:43:07.580Z,110.49
2023-05-06T00:44:07.561Z,110.49
2023-05-06T00:45:07.710Z,110.81
2023-05-06T00:46:07.543Z,109.20
2023-05-06T00:47:07.473Z,109.52
2023-05-06T00:48:07.622Z,109.84
2023-05-06T00:49:07.539Z,109.84
2023-05-06T00:50:07.437Z,109.84
2023-05-06T00:51:07.493Z,110.49
2023-05-06T00:52:07.584Z,109.52
2023-05-06T00:53:07.448Z,109.52
2023-05-06T00:54:07.411Z,109.84
2023-05-06T00:55:07.460Z,108.88
2023-05-06T00:56:07.361Z,110.17
2023-05-06T00:57:07.369Z,109.84
2023-05-06T00:58:07.356Z,110.81
2023-05-06T00:59:07.330Z,109.52
2023-05-06T01:00:07.318Z,109.20
2023-05-06T01:01:07.294Z,110.81
2023-05-06T01:02:07.292Z,109.20
2023-05-06T01:03:07.367Z,110.17
2023-05-06T01:04:07.305Z,110.49
2023-05-06T01:05:07.561Z,110.49
2023-05-06T01:06:07.234Z,110.49
2023-05-06T01:07:07.252Z,110.49
2023-05-06T01:08:07.217Z,109.52
2023-05-06T01:09:07.199Z,110.49
2023-05-06T01:10:07.213Z,110.49
2023-05-06T01:11:07.162Z,110.17
2023-05-06T01:12:07.195Z,109.84
2023-05-06T01:13:07.189Z,110.17
2023-05-06T01:14:07.145Z,109.84
2023-05-06T01:15:07.140Z,110.81
2023-05-06T01:16:07.101Z,109.20
2023-05-06T01:17:07.154Z,110.17
2023-05-06T01:18:07.102Z,109.84
2023-05-06T01:19:07.070Z,110.49
2023-05-06T01:20:07.057Z,110.49
2023-05-06T01:21:07.188Z,111.13
2023-05-06T01:22:07.509Z,110.17
2023-05-06T01:23:07.015Z,109.52
2023-05-06T01:24:06.987Z,110.49
2023-05-06T01:25:07.097Z,110.49
2023-05-06T01:26:07.010Z,109.84
2023-05-06T01:27:06.970Z,109.84
2023-05-06T01:28:06.950Z,109.84
2023-05-06T01:29:06.930Z,110.17
2023-05-06T01:30:06.934Z,109.84
2023-05-06T01:31:06.987Z,109.84
2023-05-06T01:32:06.910Z,110.81
2023-05-06T01:33:06.882Z,108.88
2023-05-06T01:34:06.862Z,109.84
2023-05-06T01:35:06.984Z,109.84
2023-05-06T01:36:06.880Z,110.17
2023-05-06T01:37:13.653Z,110.49
2023-05-06T01:38:06.895Z,110.49
2023-05-06T01:39:06.831Z,109.20
2023-05-06T01:40:06.842Z,109.84
2023-05-06T01:41:06.796Z,109.52
2023-05-06T01:42:06.763Z,109.84
2023-05-06T01:43:06.772Z,109.84
2023-05-06T01:44:06.747Z,110.81
2023-05-06T01:45:06.901Z,110.17
2023-05-06T01:46:06.773Z,110.17
2023-05-06T01:47:06.690Z,110.17
2023-05-06T01:48:06.747Z,110.81
2023-05-06T01:49:06.751Z,109.20
2023-05-06T01:50:06.709Z,109.20
2023-05-06T01:51:06.633Z,109.52
2023-05-06T01:52:06.653Z,109.84
2023-05-06T01:53:06.627Z,109.20
2023-05-06T01:54:06.678Z,110.81
2023-05-06T01:55:06.673Z,109.84
2023-05-06T01:56:06.595Z,111.13
2023-05-06T01:57:06.592Z,110.17
2023-05-06T01:58:06.589Z,110.17
2023-05-06T01:59:06.576Z,110.17
2023-05-06T02:00:06.525Z,109.52
2023-05-06T02:01:06.541Z,110.81
2023-05-06T02:02:06.563Z,109.20
2023-05-06T02:03:06.629Z,110.17
2023-05-06T02:04:06.533Z,110.49
2023-05-06T02:05:06.463Z,109.20
2023-05-06T02:06:06.444Z,110.17
2023-05-06T02:07:06.452Z,110.81
2023-05-06T02:08:06.456Z,110.49
2023-05-06T02:09:06.774Z,109.84
2023-05-06T02:10:06.400Z,110.49
2023-05-06T02:11:06.418Z,109.52
2023-05-06T02:12:06.401Z,110.17
2023-05-06T02:13:06.426Z,109.20
2023-05-06T02:14:06.369Z,109.20
2023-05-06T02:15:06.353Z,110.81
2023-05-06T02:16:06.353Z,110.49
2023-05-06T02:17:06.364Z,110.17
2023-05-06T02:18:06.284Z,109.84
2023-05-06T02:19:06.311Z,109.84
2023-05-06T02:20:06.266Z,109.84
2023-05-06T02:21:06.254Z,110.49
2023-05-06T02:22:06.264Z,109.52
2023-05-06T02:23:06.250Z,109.52
2023-05-06T02:24:06.238Z,109.84
2023-05-06T02:25:06.222Z,109.20
2023-05-06T02:26:06.225Z,109.84
2023-05-06T02:27:06.226Z,109.20
2023-05-06T02:28:06.182Z,109.84
2023-05-06T02:29:06.160Z,109.52
2023-05-06T02:30:06.138Z,109.20
2023-05-06T02:31:06.270Z,109.52
2023-05-06T02:32:06.123Z,109.20
2023-05-06T02:33:06.178Z,109.84
2023-05-06T02:34:06.088Z,110.49
2023-05-06T02:35:06.083Z,110.49
2023-05-06T02:36:06.127Z,110.49
2023-05-06T02:37:06.050Z,109.20
2023-05-06T02:38:06.183Z,109.84
2023-05-06T02:39:06.169Z,109.52
2023-05-06T02:40:06.164Z,107.27
2023-05-06T02:41:06.025Z,110.81
2023-05-06T02:42:05.999Z,110.17
2023-05-06T02:43:05.973Z,110.49
2023-05-06T02:44:05.969Z,110.17
2023-05-06T02:45:05.975Z,110.49
2023-05-06T02:46:06.027Z,109.20
2023-05-06T02:47:05.946Z,110.49
2023-05-06T02:48:05.998Z,109.20
2023-05-06T02:49:05.915Z,110.17
2023-05-06T02:50:05.894Z,110.49
2023-05-06T02:51:05.864Z,109.20
2023-05-06T02:52:05.910Z,110.81
2023-05-06T02:53:05.852Z,110.81
2023-05-06T02:54:06.266Z,109.52
2023-05-06T02:55:05.858Z,109.84
2023-05-06T02:56:05.882Z,109.20
2023-05-06T02:57:05.789Z,109.84
2023-05-06T02:58:05.769Z,110.17
2023-05-06T02:59:05.797Z,110.49
2023-05-06T03:00:05.739Z,110.49
2023-05-06T03:01:05.774Z,110.49
2023-05-06T03:02:05.727Z,110.17
2023-05-06T03:03:05.746Z,110.49
2023-05-06T03:04:05.762Z,110.81
2023-05-06T03:05:05.680Z,109.52
2023-05-06T03:06:05.667Z,110.49
2023-05-06T03:07:05.646Z,110.49
2023-05-06T03:08:05.662Z,110.81
2023-05-06T03:09:05.656Z,109.84
2023-05-06T03:10:05.649Z,109.84
2023-05-06T03:11:07.400Z,109.20
2023-05-06T03:12:05.630Z,109.20
2023-05-06T03:13:05.573Z,109.84
2023-05-06T03:14:05.556Z,109.52
2023-05-06T03:15:05.548Z,109.52
2023-05-06T03:16:05.588Z,109.84
2023-05-06T03:17:05.490Z,106.62
2023-05-06T03:18:05.511Z,110.17
2023-05-06T03:19:05.449Z,109.52
2023-05-06T03:20:05.411Z,109.52
2023-05-06T03:21:05.466Z,110.17
2023-05-06T03:22:05.429Z,109.84
2023-05-06T03:23:05.449Z,109.52
2023-05-06T03:24:05.378Z,107.27
2023-05-06T03:25:05.361Z,110.17
2023-05-06T03:26:05.918Z,110.49
2023-05-06T03:27:05.377Z,108.88
2023-05-06T03:28:05.310Z,108.55
2023-05-06T03:29:05.316Z,110.81
2023-05-06T03:30:05.299Z,110.17
2023-05-06T03:31:05.340Z,110.49
2023-05-06T03:32:05.290Z,109.52
2023-05-06T03:33:05.300Z,110.17
2023-05-06T03:34:05.282Z,108.55
2023-05-06T03:35:05.353Z,108.88
2023-05-06T03:36:05.344Z,109.52
2023-05-06T03:37:05.239Z,109.84
2023-05-06T03:38:05.206Z,109.84
2023-05-06T03:39:05.196Z,108.55
2023-05-06T03:40:05.992Z,109.84
2023-05-06T03:41:05.220Z,110.49
2023-05-06T03:42:07.090Z,109.20
2023-05-06T03:43:05.142Z,110.49
2023-05-06T03:44:05.103Z,110.17
2023-05-06T03:45:05.172Z,109.84
2023-05-06T03:46:05.129Z,110.81
2023-05-06T03:47:05.079Z,109.52
2023-05-06T03:48:05.119Z,110.17
2023-05-06T03:49:05.052Z,110.49
2023-05-06T03:50:05.053Z,109.52
2023-05-06T03:51:05.056Z,109.20
2023-05-06T03:52:05.030Z,109.52
2023-05-06T03:53:05.023Z,108.88
2023-05-06T03:54:04.980Z,110.81
2023-05-06T03:55:05.027Z,110.49
2023-05-06T03:56:05.018Z,109.52
2023-05-06T03:57:04.952Z,108.88
2023-05-06T03:58:04.924Z,109.52
2023-05-06T03:59:04.939Z,110.81
2023-05-06T04:00:04.950Z,110.17
2023-05-06T04:01:04.953Z,109.84
2023-05-06T04:02:04.901Z,109.20
2023-05-06T04:03:05.020Z,108.88
2023-05-06T04:04:04.979Z,110.49
2023-05-06T04:05:04.883Z,108.88
2023-05-06T04:06:04.841Z,109.84
2023-05-06T04:07:04.805Z,108.55
2023-05-06T04:08:04.802Z,110.17
2023-05-06T04:09:04.889Z,110.17
2023-05-06T04:10:05.031Z,109.20
2023-05-06T04:11:04.806Z,109.52
2023-05-06T04:12:05.712Z,109.20
2023-05-06T04:13:05.057Z,108.55
2023-05-06T04:14:04.749Z,109.20
2023-05-06T04:15:04.700Z,109.84
2023-05-06T04:16:04.732Z,109.52
2023-05-06T04:17:04.702Z,108.55
2023-05-06T04:18:04.751Z,110.17
2023-05-06T04:19:06.369Z,108.88
2023-05-06T04:20:04.648Z,109.20
2023-05-06T04:21:04.787Z,109.20
2023-05-06T04:22:04.611Z,110.49
2023-05-06T04:23:04.642Z,109.20
2023-05-06T04:24:04.580Z,109.84
2023-05-06T04:25:04.777Z,109.84
2023-05-06T04:26:04.569Z,109.52
2023-05-06T04:27:04.756Z,109.20
2023-05-06T04:28:04.568Z,109.84
2023-05-06T04:29:04.660Z,109.52
2023-05-06T04:30:04.516Z,110.17
2023-05-06T04:31:04.666Z,108.88
2023-05-06T04:32:04.623Z,109.84
2023-05-06T04:33:04.515Z,108.55
2023-05-06T04:34:04.459Z,110.17
2023-05-06T04:35:04.596Z,109.84
2023-05-06T04:36:04.705Z,106.30
2023-05-06T04:37:04.489Z,108.55
2023-05-06T04:38:04.501Z,110.49
2023-05-06T04:39:04.576Z,110.17
2023-05-06T04:40:04.395Z,106.30
2023-05-06T04:41:04.411Z,109.84
2023-05-06T04:42:04.540Z,109.20
2023-05-06T04:43:04.346Z,109.84
2023-05-06T04:44:04.330Z,110.49
2023-05-06T04:45:04.348Z,109.20
2023-05-06T04:46:04.337Z,109.52
2023-05-06T04:47:04.306Z,108.88
2023-05-06T04:48:04.296Z,108.55
2023-05-06T04:49:04.478Z,109.84
2023-05-06T04:50:04.292Z,108.55
2023-05-06T04:51:04.266Z,109.52
2023-05-06T04:52:04.225Z,109.84
2023-05-06T04:53:04.426Z,109.52
2023-05-06T04:54:04.239Z,106.30
2023-05-06T04:55:04.544Z,109.52
2023-05-06T04:56:04.282Z,110.17
2023-05-06T04:57:04.288Z,109.84
2023-05-06T04:58:07.279Z,109.20
2023-05-06T04:59:04.187Z,110.49
2023-05-06T05:00:04.360Z,109.20
2023-05-06T05:01:04.313Z,108.55
2023-05-06T05:02:04.150Z,109.52
2023-05-06T05:03:04.334Z,108.88
2023-05-06T05:04:04.292Z,110.17
2023-05-06T05:05:04.103Z,109.84
2023-05-06T05:06:04.071Z,109.20
2023-05-06T05:07:04.048Z,110.49
2023-05-06T05:08:04.241Z,108.55
2023-05-06T05:09:04.059Z,109.52
2023-05-06T05:10:04.111Z,108.55
2023-05-06T05:11:04.232Z,109.20
2023-05-06T05:12:04.188Z,110.49
2023-05-06T05:13:03.997Z,109.20
2023-05-06T05:14:04.002Z,109.52
2023-05-06T05:15:04.039Z,109.20
2023-05-06T05:16:04.027Z,108.55
2023-05-06T05:17:03.962Z,109.84
2023-05-06T05:18:03.943Z,108.88
2023-05-06T05:19:04.895Z,109.20
2023-05-06T05:20:03.919Z,109.52
2023-05-06T05:21:03.915Z,108.88
2023-05-06T05:22:03.964Z,109.84
2023-05-06T05:23:03.909Z,109.52
2023-05-06T05:24:03.851Z,109.20
2023-05-06T05:25:05.525Z,110.49
2023-05-06T05:26:03.850Z,109.52
2023-05-06T05:27:04.810Z,108.88
2023-05-06T05:28:03.836Z,110.49
2023-05-06T05:29:08.248Z,108.23
2023-05-06T05:30:03.908Z,109.84
2023-05-06T05:31:04.707Z,109.52
2023-05-06T05:32:03.717Z,108.55
2023-05-06T05:33:03.816Z,109.84
2023-05-06T05:34:03.751Z,110.17
2023-05-06T05:35:03.730Z,109.20
2023-05-06T05:36:03.737Z,108.55
2023-05-06T05:37:03.675Z,108.88
2023-05-06T05:38:03.817Z,108.55
2023-05-06T05:39:03.633Z,108.88
2023-05-06T05:40:03.659Z,109.84
2023-05-06T05:41:03.623Z,108.23
2023-05-06T05:42:03.606Z,109.52
2023-05-06T05:43:03.641Z,110.49
2023-05-06T05:44:04.365Z,109.20
2023-05-06T05:45:03.544Z,109.84
2023-05-06T05:46:03.576Z,108.23
2023-05-06T05:47:03.580Z,110.17
2023-05-06T05:48:03.553Z,110.17
2023-05-06T05:49:03.586Z,110.49
2023-05-06T05:50:03.589Z,109.52
2023-05-06T05:51:03.514Z,109.84
2023-05-06T05:52:03.477Z,110.17
2023-05-06T05:53:03.468Z,110.17
2023-05-06T05:54:03.460Z,109.20
2023-05-06T05:55:03.440Z,110.49
2023-05-06T05:56:04.284Z,110.81
2023-05-06T05:57:03.399Z,108.88
2023-05-06T05:58:03.455Z,110.17
2023-05-06T05:59:03.377Z,110.49
2023-05-06T06:00:03.360Z,108.88
2023-05-06T06:01:03.375Z,108.55
2023-05-06T06:02:03.322Z,109.20
2023-05-06T06:03:03.455Z,108.23
2023-05-06T06:04:03.891Z,110.49
2023-05-06T06:05:03.331Z,109.52
2023-05-06T06:06:03.301Z,109.20
2023-05-06T06:07:03.315Z,110.49
2023-05-06T06:08:04.037Z,110.49
2023-05-06T06:09:03.241Z,110.81
2023-05-06T06:10:03.996Z,109.20
2023-05-06T06:11:03.308Z,110.49
2023-05-06T06:12:03.199Z,109.20
2023-05-06T06:13:03.336Z,109.20
2023-05-06T06:14:03.327Z,110.17
2023-05-06T06:15:03.306Z,109.52
2023-05-06T06:16:03.215Z,110.49
2023-05-06T06:17:03.137Z,109.84
2023-05-06T06:18:03.233Z,110.81
2023-05-06T06:19:03.230Z,109.52
2023-05-06T06:20:03.113Z,108.88
2023-05-06T06:21:03.130Z,110.81
2023-05-06T06:22:03.072Z,109.52
2023-05-06T06:23:03.062Z,110.81
2023-05-06T06:24:03.254Z,110.81
2023-05-06T06:25:03.018Z,109.52
2023-05-06T06:26:03.016Z,109.52
2023-05-06T06:27:03.133Z,110.49
2023-05-06T06:28:03.012Z,110.81
2023-05-06T06:29:02.994Z,109.52
2023-05-06T06:30:03.102Z,109.20
2023-05-06T06:31:02.996Z,110.49
2023-05-06T06:32:03.202Z,109.52
2023-05-06T06:33:03.209Z,109.52
2023-05-06T06:34:02.934Z,110.81
2023-05-06T06:35:02.902Z,110.17
2023-05-06T06:36:02.906Z,111.13
2023-05-06T06:37:02.926Z,109.84
2023-05-06T06:38:02.990Z,110.49
2023-05-06T06:39:02.837Z,109.84
2023-05-06T06:40:02.938Z,109.52
2023-05-06T06:41:02.824Z,110.17
2023-05-06T06:42:03.078Z,110.49
2023-05-06T06:43:03.222Z,109.84
2023-05-06T06:44:02.897Z,111.13
2023-05-06T06:45:04.368Z,109.52
2023-05-06T06:46:03.847Z,109.84
2023-05-06T06:47:02.777Z,109.84
2023-05-06T06:48:02.796Z,110.17
2023-05-06T06:49:02.741Z,110.49
2023-05-06T06:50:02.694Z,110.49
2023-05-06T06:51:02.878Z,110.81
2023-05-06T06:52:02.714Z,110.17
2023-05-06T06:53:04.881Z,110.17
2023-05-06T06:54:02.668Z,110.49
2023-05-06T06:55:02.672Z,109.52
2023-05-06T06:56:02.691Z,111.13
2023-05-06T06:57:02.724Z,110.81
2023-05-06T06:58:02.701Z,110.49
2023-05-06T06:59:02.627Z,110.49
2023-05-06T07:00:02.603Z,110.81
2023-05-06T07:01:02.558Z,110.17
2023-05-06T07:02:02.573Z,110.81
2023-05-06T07:03:02.649Z,110.49
2023-05-06T07:04:02.867Z,110.17
2023-05-06T07:05:02.511Z,110.49
2023-05-06T07:06:02.555Z,110.81
2023-05-06T07:07:02.492Z,110.81
2023-05-06T07:08:02.476Z,110.49
2023-05-06T07:09:02.455Z,110.17
2023-05-06T07:10:02.506Z,111.13
2023-05-06T07:11:02.548Z,110.17
2023-05-06T07:12:02.592Z,110.49
2023-05-06T07:13:02.578Z,110.81
2023-05-06T07:14:02.450Z,110.49
2023-05-06T07:15:02.388Z,110.49
2023-05-06T07:16:06.447Z,110.49
2023-05-06T07:17:02.548Z,111.13
2023-05-06T07:18:02.459Z,110.81
2023-05-06T07:19:02.375Z,110.81
2023-05-06T07:20:02.426Z,110.49
2023-05-06T07:21:02.329Z,111.13
2023-05-06T07:22:02.579Z,111.13
2023-05-06T07:23:02.434Z,111.13
2023-05-06T07:24:02.262Z,111.46
2023-05-06T07:25:02.293Z,110.81
2023-05-06T07:26:02.362Z,109.20
2023-05-06T07:27:02.211Z,110.49
2023-05-06T07:28:02.275Z,111.13
2023-05-06T07:29:02.376Z,111.46
2023-05-06T07:30:02.217Z,111.46
2023-05-06T07:31:02.266Z,110.81
2023-05-06T07:32:02.161Z,111.78
2023-05-06T07:33:02.417Z,111.78
2023-05-06T07:34:03.022Z,111.46
2023-05-06T07:35:02.113Z,110.81
2023-05-06T07:36:02.106Z,110.81
2023-05-06T07:37:02.165Z,111.13
2023-05-06T07:38:05.683Z,111.46
2023-05-06T07:39:03.077Z,111.13
2023-05-06T07:40:02.165Z,111.13
2023-05-06T07:41:02.038Z,110.81
2023-05-06T07:42:02.218Z,109.52
2023-05-06T07:43:03.058Z,111.78
2023-05-06T07:44:02.764Z,111.13
2023-05-06T07:45:01.970Z,111.46
2023-05-06T07:46:02.066Z,111.78
2023-05-06T07:47:02.256Z,111.46
2023-05-06T07:48:02.333Z,111.46
2023-05-06T07:49:02.050Z,111.78
2023-05-06T07:50:02.555Z,111.46
2023-05-06T07:51:02.719Z,111.46
2023-05-06T07:52:02.601Z,111.46
2023-05-06T07:53:02.248Z,111.46
2023-05-06T07:54:01.888Z,109.52
2023-05-06T07:55:01.845Z,111.13
2023-05-06T07:56:04.382Z,111.46
2023-05-06T07:57:01.923Z,110.81
2023-05-06T07:58:02.135Z,111.46
2023-05-06T07:59:01.884Z,111.46
2023-05-06T08:00:02.879Z,111.46
2023-05-06T08:01:01.832Z,111.46
2023-05-06T08:02:02.031Z,111.78
2023-05-06T08:03:02.027Z,111.46
2023-05-06T08:04:01.911Z,111.13
2023-05-06T08:05:01.710Z,111.46
2023-05-06T08:06:01.867Z,111.46
2023-05-06T08:07:01.850Z,111.46
2023-05-06T08:08:01.861Z,111.13
2023-05-06T08:09:01.676Z,111.13
2023-05-06T08:10:01.680Z,111.13
2023-05-06T08:11:02.318Z,110.17
2023-05-06T08:12:01.684Z,111.46
2023-05-06T08:13:01.797Z,111.78
2023-05-06T08:14:01.601Z,111.13
2023-05-06T08:15:02.231Z,111.46
2023-05-06T08:16:01.627Z,112.10
2023-05-06T08:17:01.743Z,111.46
2023-05-06T08:18:10.395Z,111.78
2023-05-06T08:19:02.631Z,111.78
2023-05-06T08:20:01.577Z,111.46
2023-05-06T08:21:01.716Z,111.46
2023-05-06T08:22:01.586Z,111.78
2023-05-06T08:23:01.494Z,112.10
2023-05-06T08:24:01.686Z,110.49
2023-05-06T08:25:01.534Z,111.46
2023-05-06T08:26:01.609Z,111.46
2023-05-06T08:27:01.451Z,112.10
2023-05-06T08:28:01.602Z,111.78
2023-05-06T08:29:01.414Z,111.78
2023-05-06T08:30:02.044Z,111.78
2023-05-06T08:31:01.390Z,111.46
2023-05-06T08:32:01.692Z,111.46
2023-05-06T08:33:01.507Z,111.78
2023-05-06T08:34:01.572Z,111.46
2023-05-06T08:35:01.841Z,111.78
2023-05-06T08:36:01.616Z,111.78
2023-05-06T08:37:01.336Z,111.46
2023-05-06T08:38:02.119Z,111.78
2023-05-06T08:39:01.310Z,111.78
2023-05-06T08:40:01.399Z,112.10
2023-05-06T08:41:01.282Z,111.78
2023-05-06T08:42:01.376Z,111.78
2023-05-06T08:43:01.236Z,111.78
2023-05-06T08:44:01.506Z,111.78
2023-05-06T08:45:01.210Z,111.46
2023-05-06T08:46:01.448Z,112.10
2023-05-06T08:47:01.190Z,111.78
2023-05-06T08:48:01.332Z,111.46
2023-05-06T08:49:01.484Z,111.46
2023-05-06T08:50:01.147Z,112.10
2023-05-06T08:51:01.192Z,111.78
2023-05-06T08:52:01.134Z,110.81
2023-05-06T08:53:01.128Z,110.49
2023-05-06T08:54:01.120Z,111.78
2023-05-06T08:55:01.429Z,112.10
2023-05-06T08:56:01.077Z,111.78
2023-05-06T08:57:01.241Z,111.78
2023-05-06T08:58:01.084Z,111.46
2023-05-06T08:59:01.159Z,111.78
2023-05-06T09:00:01.130Z,111.78
2023-05-06T09:01:01.128Z,111.46
2023-05-06T09:02:01.034Z,112.10
2023-05-06T09:03:01.072Z,111.46
2023-05-06T09:04:00.970Z,111.78
2023-05-06T09:05:00.978Z,111.46
2023-05-06T09:06:00.969Z,112.10
2023-05-06T09:07:00.999Z,112.10
2023-05-06T09:08:00.951Z,111.13
2023-05-06T09:09:01.106Z,111.78
2023-05-06T09:10:00.890Z,111.78
2023-05-06T09:11:01.060Z,111.78
2023-05-06T09:12:00.894Z,112.10
2023-05-06T09:13:00.944Z,111.78
2023-05-06T09:14:00.876Z,112.10
2023-05-06T09:15:00.825Z,112.10
2023-05-06T09:16:00.818Z,111.78
2023-05-06T09:17:00.878Z,112.10
2023-05-06T09:18:01.048Z,112.10
2023-05-06T09:19:01.635Z,112.10
2023-05-06T09:20:00.834Z,112.10
2023-05-06T09:21:01.130Z,112.10
2023-05-06T09:22:00.879Z,111.78
2023-05-06T09:23:00.744Z,112.10
2023-05-06T09:24:00.904Z,111.46
2023-05-06T09:25:00.784Z,111.78
2023-05-06T09:26:00.888Z,112.10
2023-05-06T09:27:00.690Z,111.46
2023-05-06T09:28:00.805Z,112.10
2023-05-06T09:29:00.659Z,112.10
2023-05-06T09:30:01.482Z,111.78
2023-05-06T09:31:00.731Z,112.10
2023-05-06T09:32:00.806Z,112.10
2023-05-06T09:33:00.800Z,112.10
2023-05-06T09:34:00.579Z,111.13
2023-05-06T09:35:00.777Z,112.10
2023-05-06T09:36:00.626Z,111.78
2023-05-06T09:37:00.560Z,112.10
2023-05-06T09:38:00.575Z,111.13
2023-05-06T09:39:00.678Z,111.78
2023-05-06T09:40:00.591Z,112.10
2023-05-06T09:41:00.661Z,112.42
2023-05-06T09:42:00.530Z,111.78
2023-05-06T09:43:00.513Z,112.10
2023-05-06T09:44:00.571Z,112.10
2023-05-06T09:45:01.914Z,112.42
2023-05-06T09:46:01.048Z,111.78
2023-05-06T09:47:00.589Z,112.10
2023-05-06T09:48:00.428Z,111.78
2023-05-06T09:49:00.505Z,112.10
2023-05-06T09:50:00.549Z,112.10
2023-05-06T09:51:01.354Z,111.46
2023-05-06T09:52:00.423Z,111.78
2023-05-06T09:53:00.333Z,112.10
2023-05-06T09:54:00.567Z,112.10
2023-05-06T09:55:00.450Z,112.10
2023-05-06T09:56:00.290Z,112.10
2023-05-06T09:57:01.143Z,111.78
2023-05-06T09:58:00.351Z,112.10
2023-05-06T09:59:00.281Z,112.10
2023-05-06T10:00:00.482Z,112.10
2023-05-06T10:01:00.236Z,112.42
2023-05-06T10:02:00.316Z,111.46
2023-05-06T10:03:00.608Z,112.10
2023-05-06T10:04:00.378Z,112.42
2023-05-06T10:05:00.523Z,112.10
2023-05-06T10:06:00.277Z,111.78
2023-05-06T10:07:00.226Z,111.78
2023-05-06T10:08:00.648Z,112.74
2023-05-06T10:09:00.171Z,112.42
2023-05-06T10:10:00.156Z,112.42
2023-05-06T10:11:00.180Z,112.10
2023-05-06T10:12:00.085Z,112.10
2023-05-06T10:13:01.072Z,112.42
2023-05-06T10:14:00.149Z,112.42
2023-05-06T10:15:00.035Z,112.42
2023-05-06T10:16:00.149Z,112.42
2023-05-06T10:17:00.041Z,112.42
2023-05-06T10:18:00.086Z,112.74
2023-05-06T10:19:00.001Z,112.42
2023-05-06T10:19:59.979Z,112.42
2023-05-06T10:21:00.748Z,112.42
2023-05-06T10:21:59.977Z,112.10
2023-05-06T10:23:00.059Z,112.42
2023-05-06T10:23:59.949Z,112.10
2023-05-06T10:25:00.015Z,111.46
2023-05-06T10:25:59.936Z,111.78
2023-05-06T10:26:59.917Z,112.10
2023-05-06T10:27:59.951Z,112.10
2023-05-06T10:28:59.991Z,112.10
2023-05-06T10:29:59.919Z,112.10
2023-05-06T10:30:59.866Z,112.10
2023-05-06T10:31:59.926Z,112.10
2023-05-06T10:32:59.983Z,112.10
2023-05-06T10:33:59.852Z,112.10
2023-05-06T10:34:59.773Z,112.42
2023-05-06T10:35:59.816Z,112.10
2023-05-06T10:36:59.756Z,112.10
2023-05-06T10:37:59.730Z,112.10
2023-05-06T10:38:59.759Z,112.10
2023-05-06T10:39:59.702Z,112.10
2023-05-06T10:40:59.978Z,112.10
2023-05-06T10:41:59.670Z,111.78
2023-05-06T10:42:59.673Z,112.10
2023-05-06T10:43:59.651Z,112.10
2023-05-06T10:44:59.673Z,112.10
2023-05-06T10:45:59.707Z,112.10
2023-05-06T10:46:59.695Z,112.10
2023-05-06T10:47:59.612Z,112.10
2023-05-06T10:48:59.586Z,112.10
2023-05-06T10:49:59.680Z,112.10
2023-05-06T10:50:59.555Z,112.42
2023-05-06T10:51:59.676Z,112.10
2023-05-06T10:52:59.547Z,112.42
2023-05-06T10:54:00.111Z,112.42
2023-05-06T10:54:59.532Z,112.42
2023-05-06T10:55:59.556Z,112.10
2023-05-06T10:56:59.472Z,111.78
2023-05-06T10:57:59.604Z,112.42
2023-05-06T10:58:59.518Z,112.10
2023-05-06T10:59:59.458Z,112.42
2023-05-06T11:00:59.514Z,112.10
2023-05-06T11:01:59.442Z,112.10
2023-05-06T11:02:59.515Z,112.10
2023-05-06T11:03:59.418Z,112.42
2023-05-06T11:05:00.343Z,112.10
2023-05-06T11:05:59.354Z,112.10
2023-05-06T11:06:59.457Z,112.42
2023-05-06T11:07:59.327Z,112.42
2023-05-06T11:08:59.400Z,112.10
2023-05-06T11:09:59.315Z,111.46
2023-05-06T11:10:59.324Z,112.10
2023-05-06T11:11:59.412Z,112.10
2023-05-06T11:12:59.453Z,111.78
2023-05-06T11:14:00.188Z,112.10
2023-05-06T11:14:59.984Z,112.10
2023-05-06T11:15:59.392Z,111.78
2023-05-06T11:16:59.383Z,112.42
2023-05-06T11:17:59.426Z,111.78
2023-05-06T11:18:59.192Z,112.10
2023-05-06T11:19:59.174Z,112.10
2023-05-06T11:20:59.213Z,111.78
2023-05-06T11:21:59.147Z,111.46
2023-05-06T11:22:59.263Z,112.10
2023-05-06T11:23:59.322Z,111.78
2023-05-06T11:24:59.272Z,112.10
2023-05-06T11:26:03.168Z,111.46
2023-05-06T11:26:59.142Z,112.10
2023-05-06T11:27:59.251Z,112.10
2023-05-06T11:28:59.054Z,111.78
2023-05-06T11:29:59.072Z,111.78
2023-05-06T11:30:59.219Z,111.78
2023-05-06T11:31:59.125Z,111.46
2023-05-06T11:32:59.157Z,111.78
2023-05-06T11:33:58.982Z,111.78
2023-05-06T11:34:59.512Z,111.78
2023-05-06T11:35:59.235Z,111.78
2023-05-06T11:36:59.099Z,112.10
2023-05-06T11:37:59.067Z,112.10
2023-05-06T11:38:58.939Z,111.78
2023-05-06T11:39:59.204Z,111.78
2023-05-06T11:40:59.565Z,112.10
2023-05-06T11:41:59.038Z,112.10
2023-05-06T11:42:58.986Z,112.10
2023-05-06T11:43:58.934Z,112.10
2023-05-06T11:44:58.923Z,112.10
2023-05-06T11:45:58.933Z,111.78
2023-05-06T11:46:58.982Z,112.10
2023-05-06T11:47:58.820Z,112.10
2023-05-06T11:48:58.920Z,112.10
2023-05-06T11:49:58.974Z,111.78
2023-05-06T11:50:58.791Z,112.10
2023-05-06T11:51:58.848Z,112.42
2023-05-06T11:52:59.574Z,112.42
2023-05-06T11:53:58.727Z,112.10
2023-05-06T11:54:58.758Z,112.10
2023-05-06T11:55:58.871Z,112.10
2023-05-06T11:56:58.702Z,112.10
2023-05-06T11:57:58.792Z,112.10
2023-05-06T11:58:58.667Z,111.78
2023-05-06T11:59:58.833Z,112.10
2023-05-06T12:00:58.646Z,112.10
2023-05-06T12:01:58.614Z,112.10
2023-05-06T12:02:58.680Z,111.46
2023-05-06T12:03:58.755Z,112.10
2023-05-06T12:04:58.874Z,111.13
2023-05-06T12:05:58.565Z,112.42
2023-05-06T12:06:58.729Z,112.10
2023-05-06T12:07:58.627Z,112.10
2023-05-06T12:08:58.776Z,112.42
2023-05-06T12:09:58.546Z,111.78
2023-05-06T12:10:58.552Z,112.10
2023-05-06T12:11:58.500Z,112.10
2023-05-06T12:12:58.509Z,111.78
2023-05-06T12:13:58.495Z,112.10
2023-05-06T12:14:58.525Z,111.78
2023-05-06T12:15:58.641Z,112.10
2023-05-06T12:16:58.433Z,112.10
2023-05-06T12:17:58.478Z,112.10
2023-05-06T12:18:58.487Z,112.10
2023-05-06T12:19:58.463Z,112.10
2023-05-06T12:20:58.467Z,111.46
2023-05-06T12:21:58.424Z,111.46
2023-05-06T12:22:58.455Z,112.42
2023-05-06T12:23:58.447Z,111.78
2023-05-06T12:24:58.414Z,112.10
2023-05-06T12:25:58.306Z,112.10
2023-05-06T12:26:58.476Z,112.42
2023-05-06T12:27:58.323Z,112.10